»·PEaware :: N5568R KSAF-KAMA

N5568R :: KSAF-KAMA

FLIGHT INFORMATION

Flight Status: Arrived
Operator: Privately registered:
United States
More flights under this callsign
Pilot: Bill H. (17578)
Aircraft: BEECH AIRCRAFT A90-E90 KING AIR
(BE9L)
More flights by this aircraft type
Origin: KSAF Santa Fe Mun
United States
Destination: KAMA Amarillo Intl
United States
More flights between these airports :: More routes between these airports
Route: ECISA V62 ACH V12 PNH
File this flight plan on PilotEdge
Remarks:
Altitude:
(Current/Filed)
15,000ft
Speed:
(Current/Filed)
200kts
Departed: 13-Jan-18 05:59 PM
Arrived: 13-Jan-18 07:04 PM
Distance/Time
Traveled:
215nm/1:05
Distance/Time
To Go:
Arrived

Flight Plot

Page will automatically refresh every two minutes.

Flight plan parsing failed; only flown route is shown


Map Options




Map Legend


Flown Route
Filed Route
Departure Airport
Arrival Airport
Navaid (VOR, NDB)
Fix

Horizontal Profiles

Position Reports

Time Latitude Longitude Heading Altitude Ground
Speed
13-Jan-18 17:40 35.616365 -106.084488 0 6305ft 0kts
13-Jan-18 17:41 35.616365 -106.084488 202 6305ft 0kts
13-Jan-18 17:42 35.616365 -106.084488 202 6305ft 0kts
13-Jan-18 17:43 35.616364 -106.084488 202 6305ft 0kts
13-Jan-18 17:44 35.616364 -106.084488 202 6305ft 0kts
13-Jan-18 17:45 35.616364 -106.084488 202 6305ft 0kts
13-Jan-18 17:46 35.616364 -106.084488 202 6305ft 0kts
13-Jan-18 17:47 35.616364 -106.084488 202 6305ft 0kts
13-Jan-18 17:48 35.616364 -106.084488 202 6305ft 0kts
13-Jan-18 17:49 35.616364 -106.084488 202 6305ft 0kts
13-Jan-18 17:50 35.616364 -106.084488 202 6305ft 0kts
13-Jan-18 17:51 35.616364 -106.084488 202 6305ft 0kts
13-Jan-18 17:52 35.616364 -106.084488 202 6305ft 0kts
13-Jan-18 17:53 35.616364 -106.084488 202 6305ft 0kts
13-Jan-18 17:54 35.616364 -106.084488 202 6305ft 0kts
13-Jan-18 17:55 35.616364 -106.084488 202 6305ft 0kts
13-Jan-18 17:56 35.616364 -106.084488 202 6305ft 0kts
13-Jan-18 17:57 35.616364 -106.084488 202 6305ft 0kts
13-Jan-18 17:58 35.616364 -106.084488 202 6305ft 0kts
13-Jan-18 17:59 35.616364 -106.084488 202 6305ft 0kts
13-Jan-18 18:00 35.616364 -106.084488 202 6305ft 0kts
13-Jan-18 18:01 35.615360 -106.081981 111 6306ft 9kts
13-Jan-18 18:02 35.614766 -106.081466 206 6304ft 0kts
13-Jan-18 18:03 35.614703 -106.081504 206 6304ft 0kts
13-Jan-18 18:04 35.614703 -106.081504 206 6304ft 0kts
13-Jan-18 18:05 35.617820 -106.093179 294 6405ft 108kts
13-Jan-18 18:06 35.600425 -106.120881 176 7385ft 176kts
13-Jan-18 18:07 35.565399 -106.077296 126 8247ft 191kts
13-Jan-18 18:08 35.529939 -106.028447 134 9190ft 197kts
13-Jan-18 18:09 35.503683 -105.970781 112 10098ft 196kts
13-Jan-18 18:10 35.480033 -105.910679 115 11136ft 202kts
13-Jan-18 18:11 35.449652 -105.855266 128 12410ft 195kts
13-Jan-18 18:12 35.427431 -105.813726 123 13252ft 199kts
13-Jan-18 18:13 35.402098 -105.759916 103 12892ft 176kts
13-Jan-18 18:14 35.389040 -105.707001 102 12922ft 182kts
13-Jan-18 18:15 35.366478 -105.643513 116 13631ft 208kts
13-Jan-18 18:16 35.339618 -105.580539 114 14647ft 208kts
13-Jan-18 18:17 35.312557 -105.515970 114 15126ft 233kts
13-Jan-18 18:18 35.281916 -105.442937 115 15000ft 246kts
13-Jan-18 18:19 35.250429 -105.368026 115 14989ft 248kts
13-Jan-18 18:20 35.219187 -105.293855 115 14981ft 247kts
13-Jan-18 18:21 35.187693 -105.219267 115 14982ft 247kts
13-Jan-18 18:22 35.156164 -105.144743 115 14982ft 247kts
13-Jan-18 18:23 35.129830 -105.082593 116 14983ft 247kts
13-Jan-18 18:24 35.114756 -104.990528 82 14983ft 241kts
13-Jan-18 18:25 35.118878 -104.908500 82 14983ft 243kts
13-Jan-18 18:26 35.122503 -104.840137 83 14983ft 244kts
13-Jan-18 18:27 35.127479 -104.745754 83 14984ft 244kts
13-Jan-18 18:28 35.131062 -104.677002 83 14984ft 244kts
13-Jan-18 18:29 35.135330 -104.594094 83 14984ft 244kts
13-Jan-18 18:30 35.139535 -104.511326 83 14985ft 244kts
13-Jan-18 18:31 35.143664 -104.428864 83 14985ft 244kts
13-Jan-18 18:32 35.147722 -104.346918 83 14985ft 244kts
13-Jan-18 18:33 35.151677 -104.265779 83 14981ft 244kts
13-Jan-18 18:34 35.155627 -104.183566 83 14990ft 243kts
13-Jan-18 18:35 35.159540 -104.101022 83 14987ft 244kts
13-Jan-18 18:36 35.163350 -104.019479 83 14981ft 244kts
13-Jan-18 18:37 35.167162 -103.936782 83 14975ft 244kts
13-Jan-18 18:38 35.170928 -103.854076 83 14974ft 244kts
13-Jan-18 18:39 35.174645 -103.771217 83 14974ft 244kts
13-Jan-18 18:40 35.178292 -103.688704 83 15011ft 244kts
13-Jan-18 18:41 35.181884 -103.606128 83 15012ft 244kts
13-Jan-18 18:42 35.184850 -103.523386 84 15012ft 245kts
13-Jan-18 18:43 35.187720 -103.440309 84 15012ft 245kts
13-Jan-18 18:44 35.190536 -103.357070 84 15013ft 245kts
13-Jan-18 18:45 35.193198 -103.276811 84 15008ft 244kts
13-Jan-18 18:46 35.195887 -103.194326 84 15008ft 244kts
13-Jan-18 18:47 35.198363 -103.117122 85 15009ft 245kts
13-Jan-18 18:48 35.200949 -103.034754 85 15009ft 246kts
13-Jan-18 18:49 35.203498 -102.951668 85 15010ft 247kts
13-Jan-18 18:50 35.206011 -102.867751 85 15038ft 247kts
13-Jan-18 18:51 35.208460 -102.784173 85 15067ft 247kts
13-Jan-18 18:52 35.210860 -102.700459 85 15093ft 247kts
13-Jan-18 18:53 35.213221 -102.616116 85 15094ft 248kts
13-Jan-18 18:54 35.215512 -102.531970 85 15094ft 248kts
13-Jan-18 18:55 35.217746 -102.447745 85 15095ft 248kts
13-Jan-18 18:56 35.219914 -102.363807 85 15095ft 248kts
13-Jan-18 18:57 35.222040 -102.279141 86 14513ft 261kts
13-Jan-18 18:58 35.224172 -102.191846 87 13479ft 253kts
13-Jan-18 18:59 35.226191 -102.106893 87 12478ft 249kts
13-Jan-18 19:00 35.228120 -102.023497 88 11484ft 246kts
13-Jan-18 19:01 35.229964 -101.941413 89 10490ft 236kts
13-Jan-18 19:02 35.221968 -101.866057 109 9765ft 216kts
13-Jan-18 19:03 35.232941 -101.793825 81 8326ft 209kts
13-Jan-18 19:04 35.270912 -101.755691 46 7422ft 147kts
13-Jan-18 19:05 35.255754 -101.725132 152 6246ft 120kts
13-Jan-18 19:06 35.263663 -101.694576 3 5793ft 138kts
13-Jan-18 19:07 35.266969 -101.717301 184 5493ft 95kts
13-Jan-18 19:08 35.242497 -101.711049 138 4325ft 97kts
13-Jan-18 19:09 35.225577 -101.692302 138 3609ft 51kts
13-Jan-18 19:10 35.220859 -101.688844 226 3609ft 4kts
13-Jan-18 19:11 35.223044 -101.692100 316 3609ft 10kts
13-Jan-18 19:12 35.225781 -101.695165 317 3609ft 12kts
13-Jan-18 19:13 35.227919 -101.697932 219 3609ft 8kts
13-Jan-18 19:14 35.226511 -101.697830 173 3609ft 4kts
13-Jan-18 19:15 35.225778 -101.700160 250 3609ft 2kts
13-Jan-18 19:16 35.224244 -101.703329 222 3609ft 12kts
13-Jan-18 19:17 35.222076 -101.706083 225 3609ft 14kts
13-Jan-18 19:18 35.219049 -101.709920 225 3609ft 12kts

Navigation Log

Ident Type
Flight plan parsing failed, navigation log unavailable